Time;durP1;ratioP1;P1;durP2;ratioP2;P2;SDS_P1;SDS_P2;PMS_P1;PMS_P2;Temp;Humidity;BMP_temperature;BMP_pressure;BME280_temperature;BME280_humidity;BME280_pressure;Samples;Min_cycle;Max_cycle;Signal;HPM_P1;HPM_P2
2022/08/11 00:00:44;;;;;;;1999.90;999.90;;;;;;;16.52;56.60;99662.97;9999095;23;20046;-77
2022/08/11 00:04:47;;;;;;;1999.90;999.90;;;;;;;16.45;57.04;99661.38;10028948;23;20315;-77
2022/08/11 00:08:49;;;;;;;1999.90;999.90;;;;;;;16.44;57.18;99671.00;10027254;23;20414;-77
2022/08/11 00:12:55;;;;;;;1999.90;999.90;;;;;;;16.40;57.37;99663.25;10026690;23;20138;-78
2022/08/11 00:16:56;;;;;;;1999.90;999.90;;;;;;;16.34;57.08;99661.66;10023596;23;20031;-76
2022/08/11 00:20:59;;;;;;;1999.90;999.90;;;;;;;16.30;57.46;99659.97;10028937;23;20046;-77
2022/08/11 00:25:12;;;;;;;1999.90;999.90;;;;;;;16.27;57.32;99660.91;10026925;23;20439;-77
2022/08/11 00:29:14;;;;;;;1999.90;999.90;;;;;;;16.21;57.64;99668.94;10027676;23;20034;-76
2022/08/11 00:33:17;;;;;;;1999.90;999.90;;;;;;;16.12;57.29;99660.41;10021600;23;20118;-76
2022/08/11 00:37:21;;;;;;;1999.90;999.90;;;;;;;16.06;57.93;99668.41;10028265;23;20407;-76
2022/08/11 00:41:28;;;;;;;1999.90;999.90;;;;;;;16.03;58.48;99666.72;10018908;23;20050;-77
2022/08/11 00:46:13;;;;;;;1999.90;999.90;;;;;;;15.97;57.42;99665.06;9999039;23;20022;-77
2022/08/11 00:50:36;;;;;;;1999.90;999.90;;;;;;;15.90;57.60;99668.75;9945033;23;20026;-77
2022/08/11 00:54:38;;;;;;;1999.90;999.90;;;;;;;15.87;58.26;99674.03;10002521;23;20053;-76
2022/08/11 00:59:27;;;;;;;1999.90;999.90;;;;;;;15.84;58.71;99671.50;10003400;23;20097;-76
2022/08/11 01:04:10;;;;;;;1999.90;999.90;;;;;;;15.79;58.15;99669.84;9997976;23;20030;-76
2022/08/11 01:08:45;;;;;;;1999.90;999.90;;;;;;;15.69;58.33;99674.44;10027149;23;20034;-76
2022/08/11 01:13:02;;;;;;;1999.90;999.90;;;;;;;15.67;58.36;99678.84;10002802;23;20569;-76
2022/08/11 01:17:47;;;;;;;1999.90;999.90;;;;;;;15.61;58.60;99677.19;9999067;23;20065;-77
2022/08/11 01:22:19;;;;;;;1999.90;999.90;;;;;;;15.57;58.82;99680.75;10001464;23;20053;-76
2022/08/11 01:26:56;;;;;;;1999.90;999.90;;;;;;;15.50;59.15;99680.91;10002322;23;20058;-77
2022/08/11 01:31:35;;;;;;;1999.90;999.90;;;;;;;15.41;59.52;99676.69;9995700;23;20129;-76
2022/08/11 01:35:58;;;;;;;1999.90;999.90;;;;;;;15.34;59.73;99670.72;9986017;23;20066;-76
2022/08/11 01:40:28;;;;;;;1999.90;999.90;;;;;;;15.23;60.27;99674.44;10026042;23;20018;-77
2022/08/11 01:44:43;;;;;;;1999.90;999.90;;;;;;;15.11;60.83;99673.78;10026558;23;20070;-77
2022/08/11 01:49:20;;;;;;;1999.90;999.90;;;;;;;15.04;60.95;99673.91;10022050;23;20030;-76
2022/08/11 01:54:06;;;;;;;1999.90;999.90;;;;;;;14.96;61.17;99673.19;10045051;23;20101;-77
2022/08/11 01:58:37;;;;;;;1999.90;999.90;;;;;;;14.95;60.92;99667.09;10025741;23;20405;-76
2022/08/11 02:03:08;;;;;;;1999.90;999.90;;;;;;;14.89;61.23;99668.94;10024272;23;20591;-76
2022/08/11 02:07:35;;;;;;;1999.90;999.90;;;;;;;14.90;61.46;99686.34;10033074;23;20037;-77
2022/08/11 02:11:37;;;;;;;1999.90;999.90;;;;;;;14.89;61.80;99695.94;10031409;23;20019;-76
2022/08/11 02:15:49;;;;;;;1999.90;999.90;;;;;;;14.85;61.42;99691.66;10027590;23;20097;-76
2022/08/11 02:24:26;;;;;;;1999.90;999.90;;;;;;;14.56;62.48;99689.56;10031933;23;20031;-76
2022/08/11 02:28:48;;;;;;;1999.90;999.90;;;;;;;14.54;62.92;99690.44;10032472;23;20034;-77
2022/08/11 02:33:23;;;;;;;1999.90;999.90;;;;;;;14.54;62.51;99687.81;10031085;23;20026;-76
2022/08/11 02:37:31;;;;;;;1999.90;999.90;;;;;;;14.55;63.25;99684.34;10007703;23;20093;-77
2022/08/11 02:45:59;;;;;;;1999.90;999.90;;;;;;;14.50;62.61;99684.41;10025236;23;20034;-76
2022/08/11 02:50:25;;;;;;;1999.90;999.90;;;;;;;14.40;62.97;99685.41;10031716;23;20023;-76
2022/08/11 02:54:51;;;;;;;1999.90;999.90;;;;;;;14.38;63.33;99684.56;10032758;23;20615;-76
2022/08/11 03:03:32;;;;;;;;;;;;;;;14.33;63.61;99688.97;10025778;23;20023;-76
2022/08/11 03:08:00;;;;;;;1999.90;999.90;;;;;;;14.31;64.19;99690.75;10025872;23;20622;-76
2022/08/11 03:16:49;;;;;;;1999.90;999.90;;;;;;;14.23;64.21;99700.47;10022412;23;20054;-76
2022/08/11 03:21:27;;;;;;;1999.90;999.90;;;;;;;14.14;63.75;99691.00;10024893;23;20023;-76
2022/08/11 03:26:27;;;;;;;1999.90;999.90;;;;;;;14.04;64.03;99694.63;10024399;23;20026;-76
2022/08/11 03:30:41;;;;;;;1999.90;999.90;;;;;;;13.98;64.54;99689.47;10021149;23;20114;-76
2022/08/11 03:34:47;;;;;;;1999.90;999.90;;;;;;;13.97;64.61;99698.19;10025258;23;20019;-76
2022/08/11 03:39:04;;;;;;;1999.90;999.90;;;;;;;13.97;65.16;99695.59;10026200;23;20034;-76
2022/08/11 03:43:39;;;;;;;1999.90;999.90;;;;;;;13.91;64.97;99693.94;10002762;23;20338;-76
2022/08/11 03:48:26;;;;;;;1999.90;999.90;;;;;;;13.86;64.57;99695.75;10024829;23;20027;-76
2022/08/11 03:53:00;;;;;;;1999.90;999.90;;;;;;;13.75;65.35;99701.09;10029283;23;20320;-76
2022/08/11 03:57:27;;;;;;;1999.90;999.90;;;;;;;13.73;65.04;99700.25;9981743;23;20069;-76
2022/08/11 04:01:47;;;;;;;1999.90;999.90;;;;;;;13.72;65.63;99702.88;9999219;23;20050;-76
2022/08/11 04:06:13;;;;;;;1999.90;999.90;;;;;;;13.70;65.25;99707.25;10003490;23;20023;-76
2022/08/11 04:10:33;;;;;;;1999.90;999.90;;;;;;;13.68;66.02;99702.06;10004587;23;20030;-76
2022/08/11 04:20:00;;;;;;;1999.90;999.90;;;;;;;13.61;65.41;99696.03;10026868;23;20058;-76
2022/08/11 04:24:30;;;;;;;1999.90;999.90;;;;;;;13.57;65.74;99694.34;10027490;23;20054;-76
2022/08/11 04:28:39;;;;;;;1999.90;999.90;;;;;;;13.49;65.63;99697.94;10043685;23;20023;-76
2022/08/11 04:33:21;;;;;;;1999.90;999.90;;;;;;;13.37;66.45;99690.22;10023171;23;20097;-76
2022/08/11 04:37:48;;;;;;;1999.90;999.90;;;;;;;13.29;66.94;99700.75;10003480;23;20684;-76
2022/08/11 04:47:04;;;;;;;1999.90;999.90;;;;;;;13.42;66.67;99694.50;10023933;23;20042;-77
2022/08/11 05:05:30;;;;;;;1999.90;999.90;;;;;;;13.57;65.93;99704.78;10026445;23;19917;-77
2022/08/11 05:09:41;;;;;;;1999.90;999.90;;;;;;;13.75;66.73;99701.09;10002555;23;20402;-77
2022/08/11 05:36:11;;;;;;;1999.90;999.90;;;;;;;15.03;63.98;99706.19;10027746;23;20022;-76
2022/08/11 05:57:48;;;;;;;1999.90;999.90;;;;;;;18.45;54.34;99714.53;10027567;23;20040;-77
2022/08/11 06:01:52;;;;;;;1999.90;999.90;;;;;;;18.67;53.57;99714.72;9997723;23;20457;-78
2022/08/11 06:05:55;;;;;;;;;;;;;;;19.20;51.35;99714.72;10005575;23;20138;-78
2022/08/11 06:09:58;;;;;;;1999.90;999.90;;;;;;;19.82;49.37;99714.31;10005334;23;20250;-78
2022/08/11 06:14:02;;;;;;;1999.90;999.90;;;;;;;20.50;46.99;99719.59;10028034;23;20030;-77
2022/08/11 06:18:04;;;;;;;1999.90;999.90;;;;;;;21.17;44.95;99715.09;10024467;23;20161;-77
2022/08/11 06:22:07;;;;;;;;;;;;;;;21.76;42.77;99723.13;10028878;23;20119;-77
2022/08/11 06:26:10;;;;;;;1999.90;999.90;;;;;;;22.35;41.94;99722.16;10028370;23;19932;-77
2022/08/11 06:30:15;;;;;;;1999.90;999.90;;;;;;;22.83;41.01;99720.78;9999762;23;20141;-77
2022/08/11 06:34:34;;;;;;;1999.90;999.90;;;;;;;23.25;39.77;99723.03;9997509;23;20101;-76
2022/08/11 06:38:53;;;;;;;1999.90;999.90;;;;;;;23.56;38.41;99726.78;10027237;23;20033;-76
2022/08/11 06:43:05;;;;;;;1999.90;999.90;;;;;;;23.88;37.57;99720.66;10026064;23;20019;-76
2022/08/11 06:47:12;;;;;;;1999.90;999.90;;;;;;;24.26;36.82;99725.66;10022505;23;20487;-76
2022/08/11 06:51:15;;;;;;;1999.90;999.90;;;;;;;24.61;36.22;99734.34;10026034;23;20031;-76
2022/08/11 07:04:30;;;;;;;;;;;;;;;25.52;34.52;99728.16;10028083;23;20023;-77
2022/08/11 07:28:54;;;;;;;1999.90;999.90;;;;;;;26.38;33.69;99731.69;10023323;23;20053;-76
2022/08/11 07:31:02;;;;;;;1999.90;999.90;;;;;;;27.02;31.70;99735.50;10025388;23;20038;-76
2022/08/11 07:35:14;;;;;;;1999.90;999.90;;;;;;;27.31;31.54;99722.88;10004530;23;20578;-76
2022/08/11 07:39:25;;;;;;;1999.90;999.90;;;;;;;27.52;30.91;99733.91;10028487;23;20058;-76
2022/08/11 07:43:27;;;;;;;1999.90;999.90;;;;;;;27.67;30.41;99725.72;10031039;23;20395;-77
2022/08/11 07:56:14;;;;;;;1999.90;999.90;;;;;;;28.17;29.93;99717.75;10031888;23;20058;-77
2022/08/11 08:17:52;;;;;;;1999.90;999.90;;;;;;;29.18;27.94;99714.72;10023759;23;20679;-76
2022/08/11 08:22:18;;;;;;;1999.90;999.90;;;;;;;29.34;28.42;99714.38;10047659;23;20023;-75
2022/08/11 08:26:57;;;;;;;1999.90;999.90;;;;;;;29.47;27.82;99722.38;10027795;23;20617;-75
2022/08/11 08:30:59;;;;;;;1999.90;999.90;;;;;;;29.70;27.50;99718.75;10045058;23;20027;-75
2022/08/11 08:35:03;;;;;;;1999.90;999.90;;;;;;;29.77;27.05;99717.28;10043209;23;20038;-75
2022/08/11 08:39:05;;;;;;;1999.90;999.90;;;;;;;29.95;27.22;99712.28;10028425;23;20033;-76
2022/08/11 08:43:10;;;;;;;1999.90;999.90;;;;;;;30.01;26.63;99717.19;10029075;23;20050;-76
2022/08/11 08:47:15;;;;;;;1999.90;999.90;;;;;;;30.03;26.77;99709.88;10024173;23;20053;-75
2022/08/11 08:51:39;;;;;;;1999.90;999.90;;;;;;;30.15;26.41;99707.19;10047478;23;20438;-76
2022/08/11 08:56:02;;;;;;;1999.90;999.90;;;;;;;30.27;26.52;99711.56;10006040;23;20122;-75
2022/08/11 09:00:05;;;;;;;1999.90;999.90;;;;;;;30.37;26.55;99704.50;10024176;23;20054;-75
2022/08/11 09:04:09;;;;;;;1999.90;999.90;;;;;;;30.55;25.87;99715.56;10026075;23;20034;-75
2022/08/11 09:08:20;;;;;;;1999.90;999.90;;;;;;;30.63;25.64;99702.38;10028093;23;20097;-75
2022/08/11 09:12:26;;;;;;;1999.90;999.90;;;;;;;30.70;25.36;99714.31;10049702;23;20046;-75
2022/08/11 09:16:48;;;;;;;1999.90;999.90;;;;;;;30.79;24.79;99708.19;10024444;23;20034;-75
2022/08/11 09:20:50;;;;;;;1999.90;999.90;;;;;;;30.80;24.54;99701.00;10025712;23;20022;-76
2022/08/11 09:29:13;;;;;;;1999.90;999.90;;;;;;;30.84;24.56;99689.88;10026789;23;20040;-76
2022/08/11 09:33:16;;;;;;;1999.90;999.90;;;;;;;30.88;23.94;99694.03;10022035;23;20081;-77
2022/08/11 09:42:00;;;;;;;1999.90;999.90;;;;;;;30.93;23.51;99683.75;10026035;23;20023;-77
2022/08/11 09:46:06;;;;;;;1999.90;999.90;;;;;;;30.94;23.36;99674.72;9998810;23;20122;-76
2022/08/11 09:50:08;;;;;;;1999.90;999.90;;;;;;;30.90;23.49;99689.38;9977667;23;20023;-76
2022/08/11 09:54:11;;;;;;;1999.90;999.90;;;;;;;30.90;23.45;99685.84;10003653;23;20065;-77
2022/08/11 09:58:15;;;;;;;1999.90;999.90;;;;;;;31.00;23.44;99669.81;10018649;23;20057;-77
2022/08/11 10:02:43;;;;;;;1999.90;999.90;;;;;;;31.05;23.53;99665.75;10001857;23;20070;-77
2022/08/11 10:07:00;;;;;;;1999.90;999.90;;;;;;;31.11;23.24;99667.94;10018390;23;20019;-77
2022/08/11 10:11:10;;;;;;;1999.90;999.90;;;;;;;31.06;23.14;99662.13;10026471;23;20109;-77
2022/08/11 10:19:38;;;;;;;1999.90;999.90;;;;;;;31.01;24.21;99660.78;10023788;23;20030;-76
2022/08/11 10:28:09;;;;;;;1999.90;999.90;;;;;;;31.14;23.80;99648.03;10028064;23;20459;-76
2022/08/11 10:37:03;;;;;;;1999.90;999.90;;;;;;;31.29;23.96;99640.53;10027007;23;20031;-76
2022/08/11 10:51:11;;;;;;;;;;;;;;;31.41;23.59;99618.84;10000220;23;20018;-76
2022/08/11 10:58:48;;;;;;;1999.90;999.90;;;;;;;31.56;23.50;99625.53;10000851;23;20022;-76
2022/08/11 11:02:51;;;;;;;1999.90;999.90;;;;;;;31.56;23.55;99622.00;10022260;23;20061;-76
2022/08/11 11:07:19;;;;;;;1999.90;999.90;;;;;;;31.57;23.65;99607.59;10026706;23;20065;-76
2022/08/11 11:20:08;;;;;;;1999.90;999.90;;;;;;;31.69;23.21;99594.94;10000045;23;20291;-76
2022/08/11 11:25:09;;;;;;;1999.90;999.90;;;;;;;31.70;22.88;99581.38;10024920;23;20035;-76
2022/08/11 11:29:28;;;;;;;1999.90;999.90;;;;;;;31.83;22.84;99600.81;10024563;23;20117;-76
2022/08/11 11:33:42;;;;;;;1999.90;999.90;;;;;;;31.88;22.25;99589.66;10020590;23;20023;-76
2022/08/11 11:38:08;;;;;;;1999.90;999.90;;;;;;;32.06;21.98;99598.75;10000221;23;20026;-76
2022/08/11 11:42:17;;;;;;;1999.90;999.90;;;;;;;32.04;22.06;99600.72;10023273;23;20122;-76
2022/08/11 11:46:19;;;;;;;1999.90;999.90;;;;;;;32.11;22.72;99584.88;10022571;23;20453;-76
2022/08/11 11:50:30;;;;;;;1999.90;999.90;;;;;;;32.23;22.43;99567.66;10019553;23;20030;-76
2022/08/11 11:54:35;;;;;;;1999.90;999.90;;;;;;;32.42;22.26;99574.91;10025449;23;20019;-76
2022/08/11 12:03:01;;;;;;;1999.90;999.90;;;;;;;32.61;21.57;99561.44;10016644;23;20062;-76
2022/08/11 12:15:47;;;;;;;1999.90;999.90;;;;;;;32.71;21.52;99548.00;10021418;23;20526;-75
2022/08/11 12:20:09;;;;;;;1999.90;999.90;;;;;;;32.73;20.86;99551.41;9998070;23;20488;-75
2022/08/11 12:28:57;;;;;;;1999.90;999.90;;;;;;;32.71;21.26;99548.00;10024367;23;20050;-75
2022/08/11 12:32:58;;;;;;;1999.90;999.90;;;;;;;32.67;21.61;99543.88;9993979;23;20033;-75
2022/08/11 12:37:04;;;;;;;1999.90;999.90;;;;;;;32.74;21.63;99528.88;10026267;23;20023;-75
2022/08/11 12:45:30;;;;;;;1999.90;999.90;;;;;;;32.69;20.77;99520.41;9996115;23;20117;-75
2022/08/11 12:53:59;;;;;;;1999.90;999.90;;;;;;;32.67;21.95;99525.91;10026013;23;20040;-75
2022/08/11 12:58:15;;;;;;;1999.90;999.90;;;;;;;32.85;21.46;99514.44;10025944;23;20830;-75
2022/08/11 13:06:45;;;;;;;1999.90;999.90;;;;;;;32.93;21.04;99512.72;10026486;23;20029;-75
2022/08/11 13:15:13;;;;;;;1999.90;999.90;;;;;;;32.89;21.67;99499.72;10022573;23;20434;-74
2022/08/11 13:19:15;;;;;;;1999.90;999.90;;;;;;;32.95;21.25;99493.75;9999181;23;20034;-75
2022/08/11 13:23:18;;;;;;;1999.90;999.90;;;;;;;32.93;21.06;99493.91;10025006;23;20051;-75
2022/08/11 13:27:21;;;;;;;1999.90;999.90;;;;;;;32.86;21.83;99495.50;9999930;23;20033;-74
2022/08/11 13:31:22;;;;;;;1999.90;999.90;;;;;;;32.96;21.66;99488.22;10020037;23;20026;-76
2022/08/11 13:35:26;;;;;;;1999.90;999.90;;;;;;;33.05;21.25;99497.25;10006326;23;20053;-76
2022/08/11 13:39:29;;;;;;;1999.90;999.90;;;;;;;33.01;21.27;99474.31;10040857;23;20414;-76
2022/08/11 13:43:31;;;;;;;1999.90;999.90;;;;;;;32.94;22.01;99476.75;10025219;23;20051;-76
2022/08/11 13:47:34;;;;;;;1999.90;999.90;;;;;;;32.94;21.78;99473.22;9996435;23;20651;-76
2022/08/11 13:51:40;;;;;;;1999.90;999.90;;;;;;;33.01;21.88;99480.53;10022866;23;20054;-76
2022/08/11 13:55:42;;;;;;;1999.90;999.90;;;;;;;33.02;21.53;99470.63;10026423;23;20019;-76
2022/08/11 13:59:54;;;;;;;1999.90;999.90;;;;;;;33.01;21.48;99450.94;10027083;23;20054;-77
2022/08/11 14:04:08;;;;;;;1999.90;999.90;;;;;;;32.95;21.68;99456.06;10022799;23;20037;-77
2022/08/11 14:08:36;;;;;;;1999.90;999.90;;;;;;;32.95;21.29;99443.47;10024649;23;20731;-76
2022/08/11 14:17:15;;;;;;;1999.90;999.90;;;;;;;32.98;20.67;99439.63;10031802;23;20057;-76
2022/08/11 14:26:27;;;;;;;1999.90;999.90;;;;;;;32.89;20.92;99440.53;10024392;23;20025;-76
2022/08/11 14:34:50;;;;;;;1999.90;999.90;;;;;;;32.88;20.41;99428.94;10026213;23;20026;-76
2022/08/11 14:38:53;;;;;;;1999.90;999.90;;;;;;;32.81;20.77;99422.44;10024503;23;20057;-76
2022/08/11 14:47:17;;;;;;;1999.90;999.90;;;;;;;33.05;21.02;99406.63;10024117;23;20043;-76
2022/08/11 14:51:25;;;;;;;1999.90;999.90;;;;;;;33.13;20.74;99402.31;10002347;23;20362;-76
2022/08/11 14:59:50;;;;;;;1999.90;999.90;;;;;;;33.18;20.71;99414.31;10026089;23;20034;-75
2022/08/11 15:03:52;;;;;;;1999.90;999.90;;;;;;;33.21;20.29;99403.25;10021479;23;20038;-75
2022/08/11 15:08:15;;;;;;;1999.90;999.90;;;;;;;33.24;20.39;99394.91;10001098;23;20498;-76
2022/08/11 15:12:17;;;;;;;1999.90;999.90;;;;;;;33.20;19.73;99385.41;10025729;23;20055;-75
2022/08/11 15:25:18;;;;;;;1999.90;999.90;;;;;;;33.23;20.17;99385.13;10025019;23;20057;-75
2022/08/11 15:38:11;;;;;;;1999.90;999.90;;;;;;;33.69;19.18;99377.00;10026310;23;20500;-75
2022/08/11 15:46:41;;;;;;;1999.90;999.90;;;;;;;33.74;19.42;99377.38;9998371;23;20047;-76
2022/08/11 15:50:48;;;;;;;1999.90;999.90;;;;;;;33.81;18.61;99363.16;10003319;23;20545;-76
2022/08/11 15:54:50;;;;;;;1999.90;999.90;;;;;;;33.76;18.83;99370.03;10003870;23;20015;-76
2022/08/11 16:08:14;;;;;;;1999.90;999.90;;;;;;;33.71;18.66;99364.22;10002753;23;20058;-76
2022/08/11 16:12:19;;;;;;;1999.90;999.90;;;;;;;33.61;18.26;99358.94;10003043;23;20065;-76
2022/08/11 16:16:22;;;;;;;1999.90;999.90;;;;;;;33.54;18.96;99347.94;9974658;23;20846;-76
2022/08/11 16:20:26;;;;;;;1999.90;999.90;;;;;;;33.52;18.63;99347.25;10026878;23;20030;-76
2022/08/11 16:24:29;;;;;;;1999.90;999.90;;;;;;;33.39;18.61;99341.38;10028624;23;20106;-76
2022/08/11 16:28:53;;;;;;;1999.90;999.90;;;;;;;32.92;18.80;99346.06;10002350;23;20027;-76
2022/08/11 16:32:57;;;;;;;1999.90;999.90;;;;;;;32.33;19.21;99341.94;9973679;23;20118;-76
2022/08/11 16:50:06;;;;;;;1999.90;999.90;;;;;;;30.93;20.89;99334.25;10026915;23;20019;-76
2022/08/11 16:54:07;;;;;;;1999.90;999.90;;;;;;;30.72;20.68;99339.69;10028041;23;20106;-76
2022/08/11 17:13:07;;;;;;;1999.90;999.90;;;;;;;30.12;21.80;99335.13;10027316;23;20034;-76
2022/08/11 17:16:12;;;;;;;1999.90;999.90;;;;;;;29.81;21.75;99335.06;10036846;23;20038;-76
2022/08/11 17:20:14;;;;;;;1999.90;999.90;;;;;;;29.73;22.26;99326.81;10002568;23;20095;-76
2022/08/11 17:24:40;;;;;;;1999.90;999.90;;;;;;;29.58;22.50;99326.28;10005481;23;20082;-75
2022/08/11 17:28:43;;;;;;;1999.90;999.90;;;;;;;29.53;22.37;99327.66;10002682;23;20061;-76
2022/08/11 17:37:10;;;;;;;1999.90;999.90;;;;;;;29.35;22.45;99324.66;10027229;23;20054;-75
2022/08/11 17:49:58;;;;;;;1999.90;999.90;;;;;;;28.78;27.20;99331.94;10030228;23;20065;-77
